sensor_id;sensor_type;location;lat;lon;timestamp;P1;durP1;ratioP1;P2;durP2;ratioP2
3789;SDS011;1910;49.042;9.028;2022-10-31T00:00:54;5.53;;;3.67;;
3789;SDS011;1910;49.042;9.028;2022-10-31T00:03:20;15.43;;;4.60;;
3789;SDS011;1910;49.042;9.028;2022-10-31T00:05:48;8.30;;;4.10;;
3789;SDS011;1910;49.042;9.028;2022-10-31T00:08:15;9.53;;;5.90;;
3789;SDS011;1910;49.042;9.028;2022-10-31T00:10:42;16.05;;;5.82;;
3789;SDS011;1910;49.042;9.028;2022-10-31T00:13:08;10.25;;;5.68;;
3789;SDS011;1910;49.042;9.028;2022-10-31T00:15:35;10.32;;;6.18;;
3789;SDS011;1910;49.042;9.028;2022-10-31T00:18:07;6.22;;;5.25;;
3789;SDS011;1910;49.042;9.028;2022-10-31T00:20:34;11.10;;;4.27;;
3789;SDS011;1910;49.042;9.028;2022-10-31T00:23:02;9.90;;;4.30;;
3789;SDS011;1910;49.042;9.028;2022-10-31T00:25:32;10.50;;;3.35;;
3789;SDS011;1910;49.042;9.028;2022-10-31T00:27:59;12.27;;;5.43;;
3789;SDS011;1910;49.042;9.028;2022-10-31T00:30:25;11.87;;;4.40;;
3789;SDS011;1910;49.042;9.028;2022-10-31T00:32:51;13.20;;;4.40;;
3789;SDS011;1910;49.042;9.028;2022-10-31T00:35:17;8.40;;;5.03;;
3789;SDS011;1910;49.042;9.028;2022-10-31T00:37:43;9.80;;;3.90;;
3789;SDS011;1910;49.042;9.028;2022-10-31T00:40:09;4.67;;;3.53;;
3789;SDS011;1910;49.042;9.028;2022-10-31T00:42:35;13.38;;;4.93;;
3789;SDS011;1910;49.042;9.028;2022-10-31T00:45:01;7.87;;;4.53;;
3789;SDS011;1910;49.042;9.028;2022-10-31T00:47:27;11.40;;;4.70;;
3789;SDS011;1910;49.042;9.028;2022-10-31T00:49:53;11.83;;;3.77;;
3789;SDS011;1910;49.042;9.028;2022-10-31T00:52:22;6.83;;;3.57;;
3789;SDS011;1910;49.042;9.028;2022-10-31T00:54:48;10.95;;;3.70;;
3789;SDS011;1910;49.042;9.028;2022-10-31T00:57:14;10.53;;;4.00;;
3789;SDS011;1910;49.042;9.028;2022-10-31T00:59:39;116.57;;;12.97;;
3789;SDS011;1910;49.042;9.028;2022-10-31T01:02:05;140.17;;;13.27;;
3789;SDS011;1910;49.042;9.028;2022-10-31T01:04:31;182.10;;;16.10;;
3789;SDS011;1910;49.042;9.028;2022-10-31T01:06:58;113.37;;;12.80;;
3789;SDS011;1910;49.042;9.028;2022-10-31T01:09:23;89.47;;;10.40;;
3789;SDS011;1910;49.042;9.028;2022-10-31T01:11:51;13.40;;;7.40;;
3789;SDS011;1910;49.042;9.028;2022-10-31T01:14:16;9.38;;;5.55;;
3789;SDS011;1910;49.042;9.028;2022-10-31T01:16:42;14.23;;;6.43;;
3789;SDS011;1910;49.042;9.028;2022-10-31T01:19:08;184.83;;;15.50;;
3789;SDS011;1910;49.042;9.028;2022-10-31T01:21:34;252.53;;;21.07;;
3789;SDS011;1910;49.042;9.028;2022-10-31T01:24:00;164.63;;;14.13;;
3789;SDS011;1910;49.042;9.028;2022-10-31T01:26:30;229.60;;;19.17;;
3789;SDS011;1910;49.042;9.028;2022-10-31T01:28:57;206.05;;;19.10;;
3789;SDS011;1910;49.042;9.028;2022-10-31T01:31:29;129.93;;;13.60;;
3789;SDS011;1910;49.042;9.028;2022-10-31T01:33:58;77.50;;;10.75;;
3789;SDS011;1910;49.042;9.028;2022-10-31T01:36:27;59.13;;;11.13;;
3789;SDS011;1910;49.042;9.028;2022-10-31T01:38:55;24.60;;;7.47;;
3789;SDS011;1910;49.042;9.028;2022-10-31T01:41:24;35.70;;;9.48;;
3789;SDS011;1910;49.042;9.028;2022-10-31T01:43:59;36.05;;;10.30;;
3789;SDS011;1910;49.042;9.028;2022-10-31T01:49:18;28.23;;;9.60;;
3789;SDS011;1910;49.042;9.028;2022-10-31T01:51:56;24.58;;;9.07;;
3789;SDS011;1910;49.042;9.028;2022-10-31T01:54:25;32.15;;;8.43;;
3789;SDS011;1910;49.042;9.028;2022-10-31T01:56:56;36.05;;;8.95;;
3789;SDS011;1910;49.042;9.028;2022-10-31T01:59:25;26.27;;;7.90;;
3789;SDS011;1910;49.042;9.028;2022-10-31T02:01:55;15.20;;;7.70;;
3789;SDS011;1910;49.042;9.028;2022-10-31T02:04:21;19.10;;;8.38;;
3789;SDS011;1910;49.042;9.028;2022-10-31T02:06:51;16.25;;;7.88;;
3789;SDS011;1910;49.042;9.028;2022-10-31T02:09:23;16.27;;;7.82;;
3789;SDS011;1910;49.042;9.028;2022-10-31T02:11:50;11.23;;;6.68;;
3789;SDS011;1910;49.042;9.028;2022-10-31T02:14:17;25.63;;;9.40;;
3789;SDS011;1910;49.042;9.028;2022-10-31T02:16:43;10.27;;;6.43;;
3789;SDS011;1910;49.042;9.028;2022-10-31T02:19:09;20.17;;;7.13;;
3789;SDS011;1910;49.042;9.028;2022-10-31T02:21:47;16.33;;;8.18;;
3789;SDS011;1910;49.042;9.028;2022-10-31T02:28:22;10.95;;;6.38;;
3789;SDS011;1910;49.042;9.028;2022-10-31T02:30:24;9.48;;;5.40;;
3789;SDS011;1910;49.042;9.028;2022-10-31T02:43:55;17.60;;;9.00;;
3789;SDS011;1910;49.042;9.028;2022-10-31T02:49:37;9.05;;;4.57;;
3789;SDS011;1910;49.042;9.028;2022-10-31T02:52:17;15.95;;;6.32;;
3789;SDS011;1910;49.042;9.028;2022-10-31T02:54:43;12.45;;;6.50;;
3789;SDS011;1910;49.042;9.028;2022-10-31T02:57:10;12.40;;;6.40;;
3789;SDS011;1910;49.042;9.028;2022-10-31T02:59:45;8.95;;;5.70;;
3789;SDS011;1910;49.042;9.028;2022-10-31T03:02:22;16.42;;;7.05;;
3789;SDS011;1910;49.042;9.028;2022-10-31T03:07:35;19.20;;;8.48;;
3789;SDS011;1910;49.042;9.028;2022-10-31T03:10:35;11.63;;;7.30;;
3789;SDS011;1910;49.042;9.028;2022-10-31T03:15:47;16.52;;;6.80;;
3789;SDS011;1910;49.042;9.028;2022-10-31T03:18:27;10.00;;;5.30;;
3789;SDS011;1910;49.042;9.028;2022-10-31T03:21:08;15.50;;;6.13;;
3789;SDS011;1910;49.042;9.028;2022-10-31T03:23:51;16.65;;;5.50;;
3789;SDS011;1910;49.042;9.028;2022-10-31T03:26:19;11.20;;;5.18;;
3789;SDS011;1910;49.042;9.028;2022-10-31T03:28:59;16.35;;;5.53;;
3789;SDS011;1910;49.042;9.028;2022-10-31T03:31:29;16.02;;;5.93;;
3789;SDS011;1910;49.042;9.028;2022-10-31T03:34:00;14.02;;;7.90;;
3789;SDS011;1910;49.042;9.028;2022-10-31T03:36:27;20.35;;;10.13;;
3789;SDS011;1910;49.042;9.028;2022-10-31T03:38:56;35.75;;;9.57;;
3789;SDS011;1910;49.042;9.028;2022-10-31T03:41:23;11.45;;;7.45;;
3789;SDS011;1910;49.042;9.028;2022-10-31T03:43:55;17.70;;;9.15;;
3789;SDS011;1910;49.042;9.028;2022-10-31T03:46:26;18.08;;;8.63;;
3789;SDS011;1910;49.042;9.028;2022-10-31T03:48:52;14.38;;;8.13;;
3789;SDS011;1910;49.042;9.028;2022-10-31T03:51:35;11.53;;;7.03;;
3789;SDS011;1910;49.042;9.028;2022-10-31T03:54:21;19.73;;;7.60;;
3789;SDS011;1910;49.042;9.028;2022-10-31T03:56:53;8.18;;;5.70;;
3789;SDS011;1910;49.042;9.028;2022-10-31T03:59:24;14.95;;;6.30;;
3789;SDS011;1910;49.042;9.028;2022-10-31T04:01:55;11.55;;;6.05;;
3789;SDS011;1910;49.042;9.028;2022-10-31T04:04:24;64.95;;;9.98;;
3789;SDS011;1910;49.042;9.028;2022-10-31T04:06:51;15.40;;;6.88;;
3789;SDS011;1910;49.042;9.028;2022-10-31T04:09:18;13.35;;;6.70;;
3789;SDS011;1910;49.042;9.028;2022-10-31T04:11:46;13.63;;;6.53;;
3789;SDS011;1910;49.042;9.028;2022-10-31T04:14:17;13.07;;;5.93;;
3789;SDS011;1910;49.042;9.028;2022-10-31T04:16:43;15.10;;;8.80;;
3789;SDS011;1910;49.042;9.028;2022-10-31T04:19:10;113.70;;;14.65;;
3789;SDS011;1910;49.042;9.028;2022-10-31T04:21:37;182.23;;;22.35;;
3789;SDS011;1910;49.042;9.028;2022-10-31T04:24:03;59.10;;;11.30;;
3789;SDS011;1910;49.042;9.028;2022-10-31T04:26:29;133.63;;;16.35;;
3789;SDS011;1910;49.042;9.028;2022-10-31T04:28:55;22.80;;;9.03;;
3789;SDS011;1910;49.042;9.028;2022-10-31T04:31:20;15.87;;;9.13;;
3789;SDS011;1910;49.042;9.028;2022-10-31T04:33:46;17.60;;;7.83;;
3789;SDS011;1910;49.042;9.028;2022-10-31T04:36:12;13.90;;;8.03;;
3789;SDS011;1910;49.042;9.028;2022-10-31T04:38:38;23.17;;;7.68;;
3789;SDS011;1910;49.042;9.028;2022-10-31T04:41:04;15.97;;;7.90;;
3789;SDS011;1910;49.042;9.028;2022-10-31T04:43:30;12.47;;;7.60;;
3789;SDS011;1910;49.042;9.028;2022-10-31T04:45:56;14.20;;;7.43;;
3789;SDS011;1910;49.042;9.028;2022-10-31T04:48:22;52.30;;;11.60;;
3789;SDS011;1910;49.042;9.028;2022-10-31T04:50:48;87.87;;;12.63;;
3789;SDS011;1910;49.042;9.028;2022-10-31T04:53:14;110.90;;;15.23;;
3789;SDS011;1910;49.042;9.028;2022-10-31T04:55:40;63.83;;;10.53;;
3789;SDS011;1910;49.042;9.028;2022-10-31T04:58:06;144.23;;;15.03;;
3789;SDS011;1910;49.042;9.028;2022-10-31T05:00:32;356.27;;;27.60;;
3789;SDS011;1910;49.042;9.028;2022-10-31T05:02:58;29.30;;;7.67;;
3789;SDS011;1910;49.042;9.028;2022-10-31T05:05:25;42.17;;;8.83;;
3789;SDS011;1910;49.042;9.028;2022-10-31T05:08:02;37.05;;;8.38;;
3789;SDS011;1910;49.042;9.028;2022-10-31T05:10:28;44.03;;;10.18;;
3789;SDS011;1910;49.042;9.028;2022-10-31T05:12:56;16.50;;;7.32;;
3789;SDS011;1910;49.042;9.028;2022-10-31T05:15:23;9.27;;;6.75;;
3789;SDS011;1910;49.042;9.028;2022-10-31T05:17:50;11.10;;;7.00;;
3789;SDS011;1910;49.042;9.028;2022-10-31T05:20:16;16.15;;;8.05;;
3789;SDS011;1910;49.042;9.028;2022-10-31T05:22:45;8.82;;;7.03;;
3789;SDS011;1910;49.042;9.028;2022-10-31T05:25:15;10.30;;;7.78;;
3789;SDS011;1910;49.042;9.028;2022-10-31T05:27:43;15.52;;;7.50;;
3789;SDS011;1910;49.042;9.028;2022-10-31T05:30:10;13.07;;;7.03;;
3789;SDS011;1910;49.042;9.028;2022-10-31T05:32:41;13.98;;;6.78;;
3789;SDS011;1910;49.042;9.028;2022-10-31T05:35:14;18.40;;;8.32;;
3789;SDS011;1910;49.042;9.028;2022-10-31T05:40:14;22.20;;;8.80;;
3789;SDS011;1910;49.042;9.028;2022-10-31T05:42:41;27.23;;;8.50;;
3789;SDS011;1910;49.042;9.028;2022-10-31T05:45:11;26.35;;;9.30;;
3789;SDS011;1910;49.042;9.028;2022-10-31T05:47:39;20.27;;;8.45;;
3789;SDS011;1910;49.042;9.028;2022-10-31T05:50:06;20.15;;;8.30;;
3789;SDS011;1910;49.042;9.028;2022-10-31T05:52:32;26.90;;;8.98;;
3789;SDS011;1910;49.042;9.028;2022-10-31T05:54:58;24.30;;;8.10;;
3789;SDS011;1910;49.042;9.028;2022-10-31T05:57:24;15.65;;;9.18;;
3789;SDS011;1910;49.042;9.028;2022-10-31T05:59:50;11.90;;;7.68;;
3789;SDS011;1910;49.042;9.028;2022-10-31T06:02:18;20.08;;;9.05;;
3789;SDS011;1910;49.042;9.028;2022-10-31T06:04:44;23.42;;;10.38;;
3789;SDS011;1910;49.042;9.028;2022-10-31T06:07:10;28.20;;;8.97;;
3789;SDS011;1910;49.042;9.028;2022-10-31T06:09:36;93.80;;;12.73;;
3789;SDS011;1910;49.042;9.028;2022-10-31T06:12:02;147.63;;;15.35;;
3789;SDS011;1910;49.042;9.028;2022-10-31T06:14:27;245.63;;;19.90;;
3789;SDS011;1910;49.042;9.028;2022-10-31T06:16:54;257.60;;;20.00;;
3789;SDS011;1910;49.042;9.028;2022-10-31T06:19:19;233.65;;;18.90;;
3789;SDS011;1910;49.042;9.028;2022-10-31T06:21:45;135.73;;;13.07;;
3789;SDS011;1910;49.042;9.028;2022-10-31T06:24:11;197.60;;;16.93;;
3789;SDS011;1910;49.042;9.028;2022-10-31T06:26:41;134.90;;;15.53;;
3789;SDS011;1910;49.042;9.028;2022-10-31T06:29:06;86.20;;;11.45;;
3789;SDS011;1910;49.042;9.028;2022-10-31T06:31:32;88.87;;;12.00;;
3789;SDS011;1910;49.042;9.028;2022-10-31T06:34:01;125.20;;;12.00;;
3789;SDS011;1910;49.042;9.028;2022-10-31T06:36:27;130.93;;;14.00;;
3789;SDS011;1910;49.042;9.028;2022-10-31T06:38:53;111.10;;;13.97;;
3789;SDS011;1910;49.042;9.028;2022-10-31T06:41:19;58.30;;;10.80;;
3789;SDS011;1910;49.042;9.028;2022-10-31T06:43:48;125.03;;;16.00;;
3789;SDS011;1910;49.042;9.028;2022-10-31T06:46:13;141.18;;;16.50;;
3789;SDS011;1910;49.042;9.028;2022-10-31T06:48:42;92.50;;;13.20;;
3789;SDS011;1910;49.042;9.028;2022-10-31T06:51:08;177.15;;;15.95;;
3789;SDS011;1910;49.042;9.028;2022-10-31T06:53:34;125.13;;;13.75;;
3789;SDS011;1910;49.042;9.028;2022-10-31T06:56:00;215.90;;;15.07;;
3789;SDS011;1910;49.042;9.028;2022-10-31T06:58:26;74.47;;;10.50;;
3789;SDS011;1910;49.042;9.028;2022-10-31T07:00:52;113.20;;;12.07;;
3789;SDS011;1910;49.042;9.028;2022-10-31T07:03:18;87.07;;;10.70;;
3789;SDS011;1910;49.042;9.028;2022-10-31T07:05:45;158.27;;;13.95;;
3789;SDS011;1910;49.042;9.028;2022-10-31T07:08:11;104.07;;;11.55;;
3789;SDS011;1910;49.042;9.028;2022-10-31T07:10:39;134.75;;;13.95;;
3789;SDS011;1910;49.042;9.028;2022-10-31T07:13:06;79.45;;;11.88;;
3789;SDS011;1910;49.042;9.028;2022-10-31T07:15:37;16.00;;;9.23;;
3789;SDS011;1910;49.042;9.028;2022-10-31T07:18:05;20.13;;;9.18;;
3789;SDS011;1910;49.042;9.028;2022-10-31T07:20:32;55.67;;;10.70;;
3789;SDS011;1910;49.042;9.028;2022-10-31T07:22:58;19.55;;;8.98;;
3789;SDS011;1910;49.042;9.028;2022-10-31T07:25:25;23.55;;;9.65;;
3789;SDS011;1910;49.042;9.028;2022-10-31T07:27:51;88.70;;;11.43;;
3789;SDS011;1910;49.042;9.028;2022-10-31T07:30:25;115.10;;;14.47;;
3789;SDS011;1910;49.042;9.028;2022-10-31T07:32:51;101.60;;;14.85;;
3789;SDS011;1910;49.042;9.028;2022-10-31T07:35:18;67.32;;;12.65;;
3789;SDS011;1910;49.042;9.028;2022-10-31T07:37:45;200.30;;;18.73;;
3789;SDS011;1910;49.042;9.028;2022-10-31T07:40:11;27.63;;;11.33;;
3789;SDS011;1910;49.042;9.028;2022-10-31T07:42:38;25.15;;;8.60;;
3789;SDS011;1910;49.042;9.028;2022-10-31T07:45:07;15.57;;;8.18;;
3789;SDS011;1910;49.042;9.028;2022-10-31T07:47:44;13.13;;;8.73;;
3789;SDS011;1910;49.042;9.028;2022-10-31T07:50:18;12.67;;;7.97;;
3789;SDS011;1910;49.042;9.028;2022-10-31T07:55:35;13.43;;;8.57;;
3789;SDS011;1910;49.042;9.028;2022-10-31T07:58:08;19.23;;;7.47;;
3789;SDS011;1910;49.042;9.028;2022-10-31T08:00:36;9.83;;;7.10;;
3789;SDS011;1910;49.042;9.028;2022-10-31T08:03:03;22.37;;;7.80;;
3789;SDS011;1910;49.042;9.028;2022-10-31T08:05:31;26.33;;;8.20;;
3789;SDS011;1910;49.042;9.028;2022-10-31T08:07:58;34.27;;;7.17;;
3789;SDS011;1910;49.042;9.028;2022-10-31T08:10:24;52.97;;;8.90;;
3789;SDS011;1910;49.042;9.028;2022-10-31T08:15:23;75.23;;;10.10;;
3789;SDS011;1910;49.042;9.028;2022-10-31T08:17:49;148.30;;;14.10;;
3789;SDS011;1910;49.042;9.028;2022-10-31T08:20:16;75.20;;;10.00;;
3789;SDS011;1910;49.042;9.028;2022-10-31T08:22:42;148.43;;;15.17;;
3789;SDS011;1910;49.042;9.028;2022-10-31T08:25:08;84.37;;;12.10;;
3789;SDS011;1910;49.042;9.028;2022-10-31T08:27:34;106.33;;;12.50;;
3789;SDS011;1910;49.042;9.028;2022-10-31T08:30:00;215.27;;;16.73;;
3789;SDS011;1910;49.042;9.028;2022-10-31T08:32:26;162.50;;;15.40;;
3789;SDS011;1910;49.042;9.028;2022-10-31T08:34:52;120.60;;;15.13;;
3789;SDS011;1910;49.042;9.028;2022-10-31T08:37:19;76.17;;;10.80;;
3789;SDS011;1910;49.042;9.028;2022-10-31T08:39:45;86.23;;;10.80;;
3789;SDS011;1910;49.042;9.028;2022-10-31T08:42:11;143.97;;;13.47;;
3789;SDS011;1910;49.042;9.028;2022-10-31T08:44:38;52.00;;;7.97;;
3789;SDS011;1910;49.042;9.028;2022-10-31T08:47:04;35.83;;;7.03;;
3789;SDS011;1910;49.042;9.028;2022-10-31T08:49:30;141.13;;;15.27;;
3789;SDS011;1910;49.042;9.028;2022-10-31T08:51:56;27.97;;;9.07;;
3789;SDS011;1910;49.042;9.028;2022-10-31T08:54:22;49.97;;;9.40;;
3789;SDS011;1910;49.042;9.028;2022-10-31T08:56:48;25.87;;;7.50;;
3789;SDS011;1910;49.042;9.028;2022-10-31T08:59:20;94.47;;;10.57;;
3789;SDS011;1910;49.042;9.028;2022-10-31T09:01:45;72.40;;;9.30;;
3789;SDS011;1910;49.042;9.028;2022-10-31T09:04:12;75.03;;;10.43;;
3789;SDS011;1910;49.042;9.028;2022-10-31T09:06:38;83.30;;;9.90;;
3789;SDS011;1910;49.042;9.028;2022-10-31T09:09:09;72.27;;;9.00;;
3789;SDS011;1910;49.042;9.028;2022-10-31T09:11:35;89.50;;;9.57;;
3789;SDS011;1910;49.042;9.028;2022-10-31T09:14:05;45.07;;;9.20;;
3789;SDS011;1910;49.042;9.028;2022-10-31T09:16:32;37.10;;;8.40;;
3789;SDS011;1910;49.042;9.028;2022-10-31T09:18:58;55.00;;;9.57;;
3789;SDS011;1910;49.042;9.028;2022-10-31T09:21:25;46.83;;;8.50;;
3789;SDS011;1910;49.042;9.028;2022-10-31T09:23:54;34.73;;;8.33;;
3789;SDS011;1910;49.042;9.028;2022-10-31T09:26:21;35.57;;;7.83;;
3789;SDS011;1910;49.042;9.028;2022-10-31T09:28:50;31.93;;;7.47;;
3789;SDS011;1910;49.042;9.028;2022-10-31T09:31:15;14.10;;;6.20;;
3789;SDS011;1910;49.042;9.028;2022-10-31T09:33:41;9.50;;;5.80;;
3789;SDS011;1910;49.042;9.028;2022-10-31T09:36:07;9.43;;;5.60;;
3789;SDS011;1910;49.042;9.028;2022-10-31T09:38:46;8.27;;;5.53;;
3789;SDS011;1910;49.042;9.028;2022-10-31T09:47:10;9.90;;;6.47;;
3789;SDS011;1910;49.042;9.028;2022-10-31T09:52:36;16.20;;;6.37;;
3789;SDS011;1910;49.042;9.028;2022-10-31T09:57:49;7.13;;;6.37;;
3789;SDS011;1910;49.042;9.028;2022-10-31T10:00:18;12.20;;;6.33;;
3789;SDS011;1910;49.042;9.028;2022-10-31T10:05:22;7.50;;;6.53;;
3789;SDS011;1910;49.042;9.028;2022-10-31T10:08:12;8.20;;;6.87;;
3789;SDS011;1910;49.042;9.028;2022-10-31T10:10:46;7.50;;;6.33;;
3789;SDS011;1910;49.042;9.028;2022-10-31T10:30:16;9.53;;;7.40;;
3789;SDS011;1910;49.042;9.028;2022-10-31T10:32:54;12.37;;;8.07;;
3789;SDS011;1910;49.042;9.028;2022-10-31T10:35:38;11.10;;;8.63;;
3789;SDS011;1910;49.042;9.028;2022-10-31T10:38:16;12.03;;;8.40;;
3789;SDS011;1910;49.042;9.028;2022-10-31T10:40:54;8.00;;;7.20;;
3789;SDS011;1910;49.042;9.028;2022-10-31T10:43:29;12.63;;;6.63;;
3789;SDS011;1910;49.042;9.028;2022-10-31T10:51:52;11.10;;;8.23;;
3789;SDS011;1910;49.042;9.028;2022-10-31T10:54:36;10.60;;;7.97;;
3789;SDS011;1910;49.042;9.028;2022-10-31T10:57:12;9.20;;;6.90;;
3789;SDS011;1910;49.042;9.028;2022-10-31T10:59:44;10.40;;;7.67;;
3789;SDS011;1910;49.042;9.028;2022-10-31T11:05:08;10.40;;;6.83;;
3789;SDS011;1910;49.042;9.028;2022-10-31T11:07:44;13.30;;;7.30;;
3789;SDS011;1910;49.042;9.028;2022-10-31T11:10:13;9.07;;;8.03;;
3789;SDS011;1910;49.042;9.028;2022-10-31T11:12:40;13.63;;;7.80;;
3789;SDS011;1910;49.042;9.028;2022-10-31T11:15:21;12.63;;;8.07;;
3789;SDS011;1910;49.042;9.028;2022-10-31T11:17:49;9.00;;;7.47;;
3789;SDS011;1910;49.042;9.028;2022-10-31T11:22:46;10.80;;;7.63;;
3789;SDS011;1910;49.042;9.028;2022-10-31T11:27:46;10.70;;;7.90;;
3789;SDS011;1910;49.042;9.028;2022-10-31T11:30:13;13.90;;;8.43;;
3789;SDS011;1910;49.042;9.028;2022-10-31T11:32:57;17.00;;;9.00;;
3789;SDS011;1910;49.042;9.028;2022-10-31T11:35:24;11.30;;;7.90;;
3789;SDS011;1910;49.042;9.028;2022-10-31T11:37:50;11.33;;;8.30;;
3789;SDS011;1910;49.042;9.028;2022-10-31T11:40:24;9.90;;;7.97;;
3789;SDS011;1910;49.042;9.028;2022-10-31T11:42:52;11.00;;;8.03;;
3789;SDS011;1910;49.042;9.028;2022-10-31T11:47:52;11.17;;;8.63;;
3789;SDS011;1910;49.042;9.028;2022-10-31T11:50:23;9.37;;;7.90;;
3789;SDS011;1910;49.042;9.028;2022-10-31T11:52:52;12.13;;;10.10;;
3789;SDS011;1910;49.042;9.028;2022-10-31T11:55:33;17.77;;;9.33;;
3789;SDS011;1910;49.042;9.028;2022-10-31T11:58:00;25.43;;;10.13;;
3789;SDS011;1910;49.042;9.028;2022-10-31T12:00:28;14.27;;;9.73;;
3789;SDS011;1910;49.042;9.028;2022-10-31T12:05:35;15.20;;;9.50;;
3789;SDS011;1910;49.042;9.028;2022-10-31T12:08:04;14.23;;;9.20;;
3789;SDS011;1910;49.042;9.028;2022-10-31T12:10:42;16.23;;;10.10;;
3789;SDS011;1910;49.042;9.028;2022-10-31T12:13:32;18.70;;;9.27;;
3789;SDS011;1910;49.042;9.028;2022-10-31T12:16:00;14.93;;;9.63;;
3789;SDS011;1910;49.042;9.028;2022-10-31T12:18:37;15.50;;;10.43;;
3789;SDS011;1910;49.042;9.028;2022-10-31T12:23:50;12.43;;;8.50;;
3789;SDS011;1910;49.042;9.028;2022-10-31T12:50:10;16.43;;;10.80;;
3789;SDS011;1910;49.042;9.028;2022-10-31T12:55:41;15.00;;;10.10;;
3789;SDS011;1910;49.042;9.028;2022-10-31T12:58:31;22.00;;;11.10;;
3789;SDS011;1910;49.042;9.028;2022-10-31T13:01:14;17.87;;;10.73;;
3789;SDS011;1910;49.042;9.028;2022-10-31T13:03:50;18.67;;;10.57;;
3789;SDS011;1910;49.042;9.028;2022-10-31T13:06:21;16.57;;;12.37;;
3789;SDS011;1910;49.042;9.028;2022-10-31T13:08:52;14.87;;;10.27;;
3789;SDS011;1910;49.042;9.028;2022-10-31T13:11:23;18.93;;;11.57;;
3789;SDS011;1910;49.042;9.028;2022-10-31T13:13:55;17.00;;;9.90;;
3789;SDS011;1910;49.042;9.028;2022-10-31T13:16:35;13.03;;;9.90;;
3789;SDS011;1910;49.042;9.028;2022-10-31T13:19:17;15.93;;;10.83;;
3789;SDS011;1910;49.042;9.028;2022-10-31T13:24:16;22.40;;;11.77;;
3789;SDS011;1910;49.042;9.028;2022-10-31T13:26:47;18.17;;;11.90;;
3789;SDS011;1910;49.042;9.028;2022-10-31T13:32:04;17.40;;;11.07;;
3789;SDS011;1910;49.042;9.028;2022-10-31T13:34:35;21.57;;;11.43;;
3789;SDS011;1910;49.042;9.028;2022-10-31T13:37:28;17.77;;;10.00;;
3789;SDS011;1910;49.042;9.028;2022-10-31T13:40:31;19.37;;;10.80;;
3789;SDS011;1910;49.042;9.028;2022-10-31T13:43:08;15.03;;;10.57;;
3789;SDS011;1910;49.042;9.028;2022-10-31T13:45:51;24.13;;;13.87;;
3789;SDS011;1910;49.042;9.028;2022-10-31T13:50:57;23.37;;;12.50;;
3789;SDS011;1910;49.042;9.028;2022-10-31T13:53:39;17.30;;;12.63;;
3789;SDS011;1910;49.042;9.028;2022-10-31T13:56:20;18.57;;;10.90;;
3789;SDS011;1910;49.042;9.028;2022-10-31T14:01:35;21.70;;;13.60;;
3789;SDS011;1910;49.042;9.028;2022-10-31T14:04:07;23.30;;;12.73;;
3789;SDS011;1910;49.042;9.028;2022-10-31T14:06:41;16.07;;;10.40;;
3789;SDS011;1910;49.042;9.028;2022-10-31T14:09:26;23.27;;;12.47;;
3789;SDS011;1910;49.042;9.028;2022-10-31T14:11:52;15.57;;;11.30;;
3789;SDS011;1910;49.042;9.028;2022-10-31T14:14:19;16.30;;;11.90;;
3789;SDS011;1910;49.042;9.028;2022-10-31T14:16:52;18.17;;;12.90;;
3789;SDS011;1910;49.042;9.028;2022-10-31T14:19:21;16.50;;;10.53;;
3789;SDS011;1910;49.042;9.028;2022-10-31T14:21:48;19.33;;;12.10;;
3789;SDS011;1910;49.042;9.028;2022-10-31T14:26:56;18.30;;;11.63;;
3789;SDS011;1910;49.042;9.028;2022-10-31T14:29:27;22.97;;;12.57;;
3789;SDS011;1910;49.042;9.028;2022-10-31T14:34:41;17.93;;;13.40;;
3789;SDS011;1910;49.042;9.028;2022-10-31T14:45:47;22.70;;;15.47;;
3789;SDS011;1910;49.042;9.028;2022-10-31T14:48:51;21.90;;;15.70;;
3789;SDS011;1910;49.042;9.028;2022-10-31T14:51:35;20.33;;;14.33;;
3789;SDS011;1910;49.042;9.028;2022-10-31T14:54:06;28.53;;;15.17;;
3789;SDS011;1910;49.042;9.028;2022-10-31T14:56:40;24.40;;;14.73;;
3789;SDS011;1910;49.042;9.028;2022-10-31T14:59:15;27.20;;;17.00;;
3789;SDS011;1910;49.042;9.028;2022-10-31T15:01:48;30.83;;;17.20;;
3789;SDS011;1910;49.042;9.028;2022-10-31T15:04:23;23.30;;;14.93;;
3789;SDS011;1910;49.042;9.028;2022-10-31T15:06:53;26.50;;;15.30;;
3789;SDS011;1910;49.042;9.028;2022-10-31T15:11:51;22.97;;;14.67;;
3789;SDS011;1910;49.042;9.028;2022-10-31T15:14:27;28.87;;;18.87;;
3789;SDS011;1910;49.042;9.028;2022-10-31T15:16:55;28.27;;;16.57;;
3789;SDS011;1910;49.042;9.028;2022-10-31T15:19:26;26.83;;;16.07;;
3789;SDS011;1910;49.042;9.028;2022-10-31T15:21:54;27.10;;;15.93;;
3789;SDS011;1910;49.042;9.028;2022-10-31T15:24:22;27.60;;;17.10;;
3789;SDS011;1910;49.042;9.028;2022-10-31T15:26:57;28.30;;;16.27;;
3789;SDS011;1910;49.042;9.028;2022-10-31T15:29:24;30.23;;;14.50;;
3789;SDS011;1910;49.042;9.028;2022-10-31T15:31:58;19.67;;;14.50;;
3789;SDS011;1910;49.042;9.028;2022-10-31T15:37:07;25.10;;;15.90;;
3789;SDS011;1910;49.042;9.028;2022-10-31T15:39:39;18.60;;;12.90;;
3789;SDS011;1910;49.042;9.028;2022-10-31T15:42:28;20.87;;;12.37;;
3789;SDS011;1910;49.042;9.028;2022-10-31T15:44:58;19.30;;;12.20;;
3789;SDS011;1910;49.042;9.028;2022-10-31T15:47:28;25.27;;;12.03;;
3789;SDS011;1910;49.042;9.028;2022-10-31T15:49:56;17.10;;;10.67;;
3789;SDS011;1910;49.042;9.028;2022-10-31T15:55:03;17.77;;;10.23;;
3789;SDS011;1910;49.042;9.028;2022-10-31T15:57:39;24.80;;;10.20;;
3789;SDS011;1910;49.042;9.028;2022-10-31T16:00:20;12.70;;;10.90;;
3789;SDS011;1910;49.042;9.028;2022-10-31T16:03:03;23.10;;;12.03;;
3789;SDS011;1910;49.042;9.028;2022-10-31T16:05:34;21.13;;;13.60;;
3789;SDS011;1910;49.042;9.028;2022-10-31T16:13:35;19.20;;;12.60;;
3789;SDS011;1910;49.042;9.028;2022-10-31T16:16:12;17.50;;;11.50;;
3789;SDS011;1910;49.042;9.028;2022-10-31T16:18:40;27.83;;;13.53;;
3789;SDS011;1910;49.042;9.028;2022-10-31T16:21:06;23.87;;;14.27;;
3789;SDS011;1910;49.042;9.028;2022-10-31T16:23:33;17.50;;;11.97;;
3789;SDS011;1910;49.042;9.028;2022-10-31T16:26:00;13.00;;;9.03;;
3789;SDS011;1910;49.042;9.028;2022-10-31T16:28:31;15.90;;;10.47;;
3789;SDS011;1910;49.042;9.028;2022-10-31T16:30:58;19.30;;;11.53;;
3789;SDS011;1910;49.042;9.028;2022-10-31T16:33:31;20.60;;;11.87;;
3789;SDS011;1910;49.042;9.028;2022-10-31T16:36:00;20.17;;;12.00;;
3789;SDS011;1910;49.042;9.028;2022-10-31T16:38:27;24.00;;;11.80;;
3789;SDS011;1910;49.042;9.028;2022-10-31T16:40:53;23.10;;;14.97;;
3789;SDS011;1910;49.042;9.028;2022-10-31T16:43:19;24.00;;;14.03;;
3789;SDS011;1910;49.042;9.028;2022-10-31T16:45:48;15.80;;;9.33;;
3789;SDS011;1910;49.042;9.028;2022-10-31T16:48:18;30.37;;;13.73;;
3789;SDS011;1910;49.042;9.028;2022-10-31T16:50:46;32.20;;;17.00;;
3789;SDS011;1910;49.042;9.028;2022-10-31T16:53:12;15.80;;;9.03;;
3789;SDS011;1910;49.042;9.028;2022-10-31T16:58:24;27.17;;;15.70;;
3789;SDS011;1910;49.042;9.028;2022-10-31T17:00:53;33.67;;;18.33;;
3789;SDS011;1910;49.042;9.028;2022-10-31T17:03:19;29.40;;;15.83;;
3789;SDS011;1910;49.042;9.028;2022-10-31T17:05:45;29.53;;;17.40;;
3789;SDS011;1910;49.042;9.028;2022-10-31T17:08:11;21.80;;;11.90;;
3789;SDS011;1910;49.042;9.028;2022-10-31T17:10:37;11.23;;;6.03;;
3789;SDS011;1910;49.042;9.028;2022-10-31T17:13:05;28.97;;;10.00;;
3789;SDS011;1910;49.042;9.028;2022-10-31T17:15:35;16.00;;;10.60;;
3789;SDS011;1910;49.042;9.028;2022-10-31T17:18:06;20.93;;;12.60;;
3789;SDS011;1910;49.042;9.028;2022-10-31T17:20:32;17.90;;;8.50;;
3789;SDS011;1910;49.042;9.028;2022-10-31T17:22:58;13.88;;;8.07;;
3789;SDS011;1910;49.042;9.028;2022-10-31T17:25:25;17.80;;;9.10;;
3789;SDS011;1910;49.042;9.028;2022-10-31T17:27:53;13.43;;;8.47;;
3789;SDS011;1910;49.042;9.028;2022-10-31T17:30:19;18.30;;;9.83;;
3789;SDS011;1910;49.042;9.028;2022-10-31T17:32:46;23.90;;;10.10;;
3789;SDS011;1910;49.042;9.028;2022-10-31T17:35:13;13.03;;;8.43;;
3789;SDS011;1910;49.042;9.028;2022-10-31T17:37:39;13.48;;;7.82;;
3789;SDS011;1910;49.042;9.028;2022-10-31T17:40:09;16.40;;;6.37;;
3789;SDS011;1910;49.042;9.028;2022-10-31T17:42:35;13.88;;;6.30;;
3789;SDS011;1910;49.042;9.028;2022-10-31T17:45:01;10.63;;;6.05;;